createdAt,value
2019-02-22T00:00:02.792Z,9
2019-02-22T00:01:12.731Z,8.93
2019-02-22T00:02:22.289Z,9.05
2019-02-22T00:03:31.973Z,8.96
2019-02-22T00:04:41.915Z,8.87
2019-02-22T00:05:51.687Z,8.82
2019-02-22T00:07:01.379Z,8.95
2019-02-22T00:08:11.109Z,8.9
2019-02-22T00:09:20.553Z,8.96
2019-02-22T00:10:30.270Z,8.95
2019-02-22T00:11:40.222Z,8.92
2019-02-22T00:12:50.185Z,8.93
2019-02-22T00:14:00.147Z,8.95
2019-02-22T00:15:10.080Z,8.82
2019-02-22T00:16:19.811Z,8.9
2019-02-22T00:17:29.767Z,8.87
2019-02-22T00:18:39.732Z,8.87
2019-02-22T00:19:51.135Z,8.84
2019-02-22T00:21:01.111Z,8.84
2019-02-22T00:22:11.066Z,8.89
2019-02-22T00:23:20.512Z,8.82
2019-02-22T00:24:29.945Z,8.84
2019-02-22T00:25:39.643Z,8.84
2019-02-22T00:26:49.327Z,8.92
2019-02-22T00:27:59.255Z,8.89
2019-02-22T00:29:09.186Z,8.89
2019-02-22T00:30:18.634Z,8.79
2019-02-22T00:31:29.227Z,8.82
2019-02-22T00:32:38.909Z,8.77
2019-02-22T00:33:50.086Z,8.78
2019-02-22T00:34:59.900Z,8.78
2019-02-22T00:36:09.996Z,8.74
2019-02-22T00:37:21.407Z,8.79
2019-02-22T00:38:32.018Z,8.77
2019-02-22T00:39:41.703Z,8.81
2019-02-22T00:40:51.661Z,8.79
2019-02-22T00:42:01.610Z,8.84
2019-02-22T00:43:11.564Z,8.77
2019-02-22T00:44:21.529Z,8.78
2019-02-22T00:45:31.533Z,8.82
2019-02-22T00:46:41.467Z,8.81
2019-02-22T00:47:51.421Z,8.82
2019-02-22T00:49:01.119Z,8.84
2019-02-22T00:50:11.061Z,8.81
2019-02-22T00:51:21.011Z,8.79
2019-02-22T00:52:35.770Z,8.78
2019-02-22T00:53:45.737Z,8.81
2019-02-22T00:54:55.709Z,8.72
2019-02-22T00:56:05.692Z,8.79
2019-02-22T00:57:15.643Z,8.69
2019-02-22T00:58:25.345Z,8.79
2019-02-22T00:59:35.045Z,8.78
2019-02-22T01:00:44.746Z,8.72
2019-02-22T01:01:54.695Z,8.75
2019-02-22T01:03:04.629Z,8.72
2019-02-22T01:04:14.591Z,8.69
2019-02-22T01:05:23.540Z,8.64
2019-02-22T01:06:33.251Z,8.64
2019-02-22T01:07:42.939Z,8.66
2019-02-22T01:08:52.641Z,8.68
2019-02-22T01:10:02.805Z,8.71
2019-02-22T01:11:12.742Z,8.64
2019-02-22T01:12:22.468Z,8.64
2019-02-22T01:13:32.395Z,8.68
2019-02-22T01:14:42.107Z,8.71
2019-02-22T01:15:52.045Z,8.69
2019-02-22T01:17:02.200Z,8.64
2019-02-22T01:18:11.919Z,8.69
2019-02-22T01:19:21.856Z,8.64
2019-02-22T01:20:31.550Z,8.63
2019-02-22T01:21:41.486Z,8.68
2019-02-22T01:22:51.182Z,8.61
2019-02-22T01:24:00.652Z,8.64
2019-02-22T01:25:10.624Z,8.66
2019-02-22T01:26:20.389Z,8.52
2019-02-22T01:27:30.093Z,8.6
2019-02-22T01:28:39.795Z,8.61
2019-02-22T01:29:49.244Z,8.64
2019-02-22T01:30:59.201Z,8.61
2019-02-22T01:32:09.176Z,8.52
2019-02-22T01:33:19.135Z,8.59
2019-02-22T01:34:29.075Z,8.6
2019-02-22T01:35:39.016Z,8.6
2019-02-22T01:36:48.733Z,8.59
2019-02-22T01:37:58.690Z,8.61
2019-02-22T01:39:08.393Z,8.57
2019-02-22T01:40:18.357Z,8.61
2019-02-22T01:41:28.074Z,8.56
2019-02-22T01:42:37.769Z,8.53
2019-02-22T01:43:47.226Z,8.45
2019-02-22T01:44:57.212Z,8.52
2019-02-22T01:46:07.158Z,8.49
2019-02-22T01:47:17.098Z,8.52
2019-02-22T01:48:27.037Z,8.53
2019-02-22T01:49:36.762Z,8.5
2019-02-22T01:50:46.457Z,8.46
2019-02-22T01:51:56.160Z,8.5
2019-02-22T01:53:05.853Z,8.45
2019-02-22T01:54:15.550Z,8.5
2019-02-22T01:55:25.500Z,8.5
2019-02-22T01:56:35.453Z,8.39
2019-02-22T01:57:45.407Z,8.52
2019-02-22T01:58:55.353Z,8.39
2019-02-22T02:00:05.381Z,8.5
2019-02-22T02:01:15.346Z,8.44
2019-02-22T02:02:25.293Z,8.42
2019-02-22T02:03:34.723Z,8.49
2019-02-22T02:04:44.666Z,8.39
2019-02-22T02:05:54.613Z,8.46
2019-02-22T02:07:04.303Z,8.36
2019-02-22T02:08:13.753Z,8.46
2019-02-22T02:09:23.693Z,8.41
2019-02-22T02:10:33.381Z,8.44
2019-02-22T02:11:42.823Z,8.35
2019-02-22T02:12:52.514Z,8.45
2019-02-22T02:14:02.532Z,8.36
2019-02-22T02:15:12.483Z,8.35
2019-02-22T02:16:22.453Z,8.32
2019-02-22T02:17:32.398Z,8.36
2019-02-22T02:18:42.107Z,8.38
2019-02-22T02:19:51.301Z,8.36
2019-02-22T02:21:01.023Z,8.38
2019-02-22T02:22:10.710Z,8.38
2019-02-22T02:23:20.675Z,8.39
2019-02-22T02:24:29.858Z,8.36
2019-02-22T02:25:39.805Z,8.35
2019-02-22T02:26:49.774Z,8.36
2019-02-22T02:27:59.727Z,8.34
2019-02-22T02:29:09.784Z,8.36
2019-02-22T02:30:19.736Z,8.36
2019-02-22T02:31:29.483Z,8.34
2019-02-22T02:32:39.428Z,8.34
2019-02-22T02:33:49.423Z,8.31
2019-02-22T02:34:59.383Z,8.32
2019-02-22T02:36:09.354Z,8.34
2019-02-22T02:37:19.303Z,8.36
2019-02-22T02:38:29.017Z,8.31
2019-02-22T02:39:38.968Z,8.35
2019-02-22T02:40:48.652Z,8.36
2019-02-22T02:41:58.345Z,8.32
2019-02-22T02:43:08.066Z,8.32
2019-02-22T02:44:17.761Z,8.34
2019-02-22T02:45:27.232Z,8.28
2019-02-22T02:46:37.185Z,8.32
2019-02-22T02:47:46.903Z,8.27
2019-02-22T02:48:56.857Z,8.34
2019-02-22T02:50:06.831Z,8.26
2019-02-22T02:51:16.539Z,8.31
2019-02-22T02:52:26.527Z,8.21
2019-02-22T02:53:36.491Z,8.2
2019-02-22T02:54:46.453Z,8.23
2019-02-22T02:55:55.912Z,8.23
2019-02-22T02:57:05.901Z,8.23
2019-02-22T02:58:15.428Z,8.2
2019-02-22T02:59:24.876Z,8.23
2019-02-22T03:00:34.069Z,8.14
2019-02-22T03:01:43.825Z,8.24
2019-02-22T03:02:53.523Z,8.18
2019-02-22T03:04:03.457Z,8.13
2019-02-22T03:05:13.413Z,8.11
2019-02-22T03:06:23.122Z,8.17
2019-02-22T03:07:33.091Z,8.14
2019-02-22T03:08:43.040Z,8.17
2019-02-22T03:09:52.739Z,8.16
2019-02-22T03:11:02.442Z,8.18
2019-02-22T03:12:25.372Z,8.11
2019-02-22T03:13:35.331Z,8.13
2019-02-22T03:14:45.274Z,8.14
2019-02-22T03:15:54.975Z,8.16
2019-02-22T03:17:04.993Z,8.17
2019-02-22T03:18:14.958Z,8.11
2019-02-22T03:19:24.906Z,8.06
2019-02-22T03:20:34.610Z,8.03
2019-02-22T03:21:44.575Z,8.06
2019-02-22T03:22:54.527Z,8.05
2019-02-22T03:24:04.254Z,8.02
2019-02-22T03:25:14.265Z,8.08
2019-02-22T03:26:23.974Z,8.11
2019-02-22T03:27:33.414Z,8.01
2019-02-22T03:28:43.357Z,8.08
2019-02-22T03:29:53.080Z,8.01
2019-02-22T03:31:03.048Z,8.01
2019-02-22T03:32:13.051Z,8.02
2019-02-22T03:33:23.058Z,8.03
2019-02-22T03:34:33.168Z,7.99
2019-02-22T03:35:42.874Z,8.03
2019-02-22T03:36:52.853Z,7.98
2019-02-22T03:38:02.561Z,7.98
2019-02-22T03:39:13.355Z,7.88
2019-02-22T03:40:23.047Z,7.84
2019-02-22T03:41:38.018Z,7.88
2019-02-22T03:42:47.954Z,7.85
2019-02-22T03:43:57.651Z,7.84
2019-02-22T03:45:07.606Z,7.8
2019-02-22T03:46:17.315Z,7.74
2019-02-22T03:47:27.303Z,7.8
2019-02-22T03:48:40.408Z,7.75
2019-02-22T03:49:50.370Z,7.81
2019-02-22T03:51:00.345Z,7.78
2019-02-22T03:52:10.303Z,7.8
2019-02-22T03:53:20.004Z,7.78
2019-02-22T03:54:29.700Z,7.72
2019-02-22T03:55:39.692Z,7.8
2019-02-22T03:56:48.930Z,7.64
2019-02-22T03:57:58.905Z,7.74
2019-02-22T03:59:08.613Z,7.77
2019-02-22T04:00:18.594Z,7.61
2019-02-22T04:01:28.552Z,7.66
2019-02-22T04:02:38.250Z,7.59
2019-02-22T04:03:48.218Z,7.61
2019-02-22T04:04:58.162Z,7.58
2019-02-22T04:06:08.154Z,7.46
2019-02-22T04:07:18.095Z,7.51
2019-02-22T04:08:27.040Z,7.41
2019-02-22T04:09:37.001Z,7.4
2019-02-22T04:10:46.946Z,7.32
2019-02-22T04:11:56.635Z,7.39
2019-02-22T04:13:06.589Z,7.39
2019-02-22T04:14:16.305Z,7.33
2019-02-22T04:15:26.270Z,7.36
2019-02-22T04:16:36.016Z,7.21
2019-02-22T04:17:45.707Z,7.31
2019-02-22T04:18:55.402Z,7.14
2019-02-22T04:20:05.014Z,7.08
2019-02-22T04:21:14.968Z,7.05
2019-02-22T04:22:24.931Z,6.95
2019-02-22T04:23:34.887Z,6.95
2019-02-22T04:24:44.822Z,6.92
2019-02-22T04:25:54.279Z,6.86
2019-02-22T04:27:04.369Z,6.9
2019-02-22T04:28:14.062Z,6.87
2019-02-22T04:29:23.520Z,6.9
2019-02-22T04:30:33.483Z,6.86
2019-02-22T04:31:45.250Z,6.78
2019-02-22T04:32:55.186Z,6.8
2019-02-22T04:34:04.637Z,6.74
2019-02-22T04:35:14.410Z,6.74
2019-02-22T04:36:24.124Z,6.67
2019-02-22T04:37:33.823Z,6.71
2019-02-22T04:38:43.798Z,6.62
2019-02-22T04:39:53.760Z,6.53
2019-02-22T04:41:03.215Z,6.54
2019-02-22T04:42:13.130Z,6.54
2019-02-22T04:43:23.065Z,6.54
2019-02-22T04:44:33.046Z,6.43
2019-02-22T04:45:42.017Z,6.29
2019-02-22T04:46:51.968Z,6.29
2019-02-22T04:48:01.669Z,6.13
2019-02-22T04:49:11.373Z,6.16
2019-02-22T04:50:21.348Z,6.1
2019-02-22T04:51:31.300Z,6.06
2019-02-22T04:52:41.260Z,6.05
2019-02-22T04:53:50.971Z,6.02
2019-02-22T04:55:00.931Z,5.98
2019-02-22T04:56:10.902Z,6.01
2019-02-22T04:57:20.612Z,5.97
2019-02-22T04:58:30.334Z,5.84
2019-02-22T04:59:40.295Z,5.84
2019-02-22T05:00:50.265Z,5.87
2019-02-22T05:02:00.210Z,5.87
2019-02-22T05:03:09.883Z,5.67
2019-02-22T05:04:19.874Z,5.65
2019-02-22T05:05:29.845Z,5.65
2019-02-22T05:06:39.789Z,5.65
2019-02-22T05:07:49.480Z,5.73
2019-02-22T05:08:59.467Z,5.69
2019-02-22T05:10:08.922Z,5.61
2019-02-22T05:11:18.616Z,5.62
2019-02-22T05:12:28.565Z,5.49
2019-02-22T05:13:38.252Z,5.41
2019-02-22T05:14:47.980Z,5.41
2019-02-22T05:15:57.915Z,5.47
2019-02-22T05:17:07.850Z,5.47
2019-02-22T05:18:17.567Z,5.41
2019-02-22T05:19:27.556Z,5.47
2019-02-22T05:20:37.264Z,5.43
2019-02-22T05:21:46.961Z,5.49
2019-02-22T05:23:10.003Z,5.38
2019-02-22T05:24:19.459Z,5.33
2019-02-22T05:25:29.409Z,5.29
2019-02-22T05:26:38.886Z,5.31
2019-02-22T05:27:48.592Z,5.34
2019-02-22T05:28:58.028Z,5.34
2019-02-22T05:30:07.737Z,5.25
2019-02-22T05:31:17.180Z,5.2
2019-02-22T05:32:26.864Z,5.19
2019-02-22T05:33:36.810Z,5.18
2019-02-22T05:34:46.275Z,5.22
2019-02-22T05:35:56.230Z,5.25
2019-02-22T05:37:06.024Z,5.16
2019-02-22T05:38:15.979Z,5.15
2019-02-22T05:39:25.936Z,5.18
2019-02-22T05:40:35.636Z,5.01
2019-02-22T05:41:45.353Z,5.04
2019-02-22T05:42:55.340Z,5.02
2019-02-22T05:44:05.299Z,4.97
2019-02-22T05:45:15.302Z,4.94
2019-02-22T05:46:24.791Z,4.94
2019-02-22T05:47:34.795Z,4.98
2019-02-22T05:48:44.780Z,4.95
2019-02-22T05:49:54.508Z,4.87
2019-02-22T05:51:04.464Z,4.79
2019-02-22T05:52:14.226Z,4.7
2019-02-22T05:53:24.198Z,4.71
2019-02-22T05:54:34.187Z,4.86
2019-02-22T05:55:46.654Z,4.82
2019-02-22T05:56:59.850Z,4.78
2019-02-22T05:58:09.552Z,4.78
2019-02-22T05:59:18.999Z,4.79
2019-02-22T06:00:28.718Z,4.87
2019-02-22T06:01:38.548Z,4.74
2019-02-22T06:02:48.554Z,4.82
2019-02-22T06:03:58.502Z,4.71
2019-02-22T06:05:08.445Z,4.66
2019-02-22T06:06:18.184Z,4.74
2019-02-22T06:07:27.904Z,4.66
2019-02-22T06:08:37.910Z,4.64
2019-02-22T06:09:47.638Z,4.71
2019-02-22T06:10:57.684Z,4.74
2019-02-22T06:12:07.649Z,4.67
2019-02-22T06:13:17.588Z,4.64
2019-02-22T06:14:27.295Z,4.74
2019-02-22T06:15:37.327Z,4.63
2019-02-22T06:16:46.536Z,4.75
2019-02-22T06:17:56.493Z,4.68
2019-02-22T06:19:06.203Z,4.7
2019-02-22T06:20:15.915Z,4.67
2019-02-22T06:21:25.633Z,4.74
2019-02-22T06:22:35.335Z,4.67
2019-02-22T06:23:44.825Z,4.64
2019-02-22T06:24:54.253Z,4.68
2019-02-22T06:26:04.078Z,4.66
2019-02-22T06:27:14.079Z,4.75
2019-02-22T06:28:24.032Z,4.67
2019-02-22T06:29:33.721Z,4.67
2019-02-22T06:30:43.168Z,4.71
2019-02-22T06:31:53.345Z,4.66
2019-02-22T06:33:03.232Z,4.63
2019-02-22T06:34:13.183Z,4.61
2019-02-22T06:35:23.151Z,4.63
2019-02-22T06:36:33.101Z,4.57
2019-02-22T06:37:43.050Z,4.52
2019-02-22T06:38:53.416Z,4.56
2019-02-22T06:40:03.108Z,4.53
2019-02-22T06:41:12.838Z,4.49
2019-02-22T06:42:22.551Z,4.52
2019-02-22T06:43:32.248Z,4.52
2019-02-22T06:44:42.184Z,4.4
2019-02-22T06:45:52.003Z,4.45
2019-02-22T06:47:01.723Z,4.4
2019-02-22T06:48:11.423Z,4.39
2019-02-22T06:49:21.362Z,4.43
2019-02-22T06:50:38.797Z,4.4
2019-02-22T06:51:48.724Z,4.4
2019-02-22T06:52:58.416Z,4.46
2019-02-22T06:54:08.400Z,4.34
2019-02-22T06:55:18.635Z,4.38
2019-02-22T06:56:29.166Z,4.36
2019-02-22T06:57:39.255Z,4.25
2019-02-22T06:58:49.012Z,4.21
2019-02-22T06:59:58.968Z,4.22
2019-02-22T07:01:08.420Z,4.21
2019-02-22T07:02:18.117Z,4.21
2019-02-22T07:03:27.813Z,4.06
2019-02-22T07:04:37.503Z,4.16
2019-02-22T07:05:46.958Z,4.07
2019-02-22T07:06:56.923Z,4.07
2019-02-22T07:08:06.633Z,4.04
2019-02-22T07:09:16.600Z,4.13
2019-02-22T07:10:26.546Z,4.06
2019-02-22T07:11:37.746Z,4.12
2019-02-22T07:12:59.066Z,4.02
2019-02-22T07:14:08.779Z,4
2019-02-22T07:15:18.731Z,4.03
2019-02-22T07:16:28.687Z,3.99
2019-02-22T07:17:38.398Z,4.04
2019-02-22T07:18:49.910Z,4.02
2019-02-22T07:19:59.963Z,3.96
2019-02-22T07:21:09.660Z,3.92
2019-02-22T07:22:19.369Z,3.92
2019-02-22T07:23:29.339Z,3.91
2019-02-22T07:24:39.289Z,3.78
2019-02-22T07:25:49.232Z,3.86
2019-02-22T07:26:59.195Z,3.85
2019-02-22T07:28:08.893Z,3.82
2019-02-22T07:29:18.595Z,3.68
2019-02-22T07:30:29.886Z,3.7
2019-02-22T07:31:39.595Z,3.55
2019-02-22T07:32:49.367Z,3.48
2019-02-22T07:33:59.435Z,3.37
2019-02-22T07:35:14.197Z,3.34
2019-02-22T07:36:24.195Z,3.31
2019-02-22T07:37:33.886Z,3.33
2019-02-22T07:38:43.879Z,3.33
2019-02-22T07:39:53.612Z,3.29
2019-02-22T07:41:03.605Z,3.26
2019-02-22T07:42:13.559Z,3.19
2019-02-22T07:43:23.494Z,3.22
2019-02-22T07:44:33.521Z,3.19
2019-02-22T07:45:43.489Z,3.3
2019-02-22T07:46:53.444Z,3.29
2019-02-22T07:48:03.410Z,3.16
2019-02-22T07:49:13.142Z,3.24
2019-02-22T07:50:23.106Z,3.24
2019-02-22T07:51:33.050Z,3.13
2019-02-22T07:52:44.481Z,3.06
2019-02-22T07:53:55.163Z,3.13
2019-02-22T07:55:05.268Z,3.06
2019-02-22T07:56:15.234Z,3.12
2019-02-22T07:57:26.403Z,3.12
2019-02-22T07:58:36.119Z,3.05
2019-02-22T07:59:45.571Z,3.13
2019-02-22T08:00:55.156Z,3.12
2019-02-22T08:02:04.879Z,3.11
2019-02-22T08:03:14.329Z,3.06
2019-02-22T08:04:24.287Z,3.09
2019-02-22T08:05:34.065Z,3.13
2019-02-22T08:06:45.045Z,3.11
2019-02-22T08:07:54.498Z,3.12
2019-02-22T08:09:03.945Z,3.09
2019-02-22T08:10:13.659Z,3.16
2019-02-22T08:11:23.623Z,3.08
2019-02-22T08:12:33.621Z,3.06
2019-02-22T08:13:43.430Z,3.09
2019-02-22T08:14:53.129Z,3.09
2019-02-22T08:16:03.080Z,3.13
2019-02-22T08:17:14.654Z,3.09
2019-02-22T08:18:24.741Z,3.18
2019-02-22T08:19:34.707Z,3.21
2019-02-22T08:20:44.258Z,3.19
2019-02-22T08:21:53.995Z,3.24
2019-02-22T08:23:05.261Z,3.19
2019-02-22T08:24:15.220Z,3.16
2019-02-22T08:25:25.185Z,3.21
2019-02-22T08:26:34.648Z,3.16
2019-02-22T08:27:56.413Z,3.21
2019-02-22T08:29:06.362Z,3.16
2019-02-22T08:30:16.323Z,3.16
2019-02-22T08:31:25.778Z,3.21
2019-02-22T08:32:35.737Z,3.19
2019-02-22T08:33:45.676Z,3.21
2019-02-22T08:34:55.381Z,3.22
2019-02-22T08:36:05.463Z,3.24
2019-02-22T08:37:15.437Z,3.21
2019-02-22T08:38:25.413Z,3.15
2019-02-22T08:39:34.858Z,3.18
2019-02-22T08:40:44.821Z,3.19
2019-02-22T08:41:54.767Z,3.19
2019-02-22T08:43:04.456Z,3.08
2019-02-22T08:44:14.405Z,3.19
2019-02-22T08:45:24.103Z,3.21
2019-02-22T08:46:34.055Z,3.11
2019-02-22T08:47:44.047Z,3.21
2019-02-22T08:48:53.754Z,3.24
2019-02-22T08:50:03.711Z,3.21
2019-02-22T08:51:13.168Z,3.21
2019-02-22T08:52:22.862Z,3.11
2019-02-22T08:53:32.558Z,3.06
2019-02-22T08:54:52.028Z,3.11
2019-02-22T08:56:01.972Z,3.13
2019-02-22T08:57:11.721Z,3.13
2019-02-22T08:58:21.163Z,3.11
2019-02-22T08:59:30.855Z,3.09
2019-02-22T09:00:40.865Z,3.22
2019-02-22T09:01:51.138Z,3.21
2019-02-22T09:03:00.865Z,3.26
2019-02-22T09:04:10.854Z,3.3
2019-02-22T09:05:20.578Z,3.3
2019-02-22T09:06:30.589Z,3.46
2019-02-22T09:07:40.565Z,3.81
2019-02-22T09:08:50.523Z,4.24
2019-02-22T09:10:00.469Z,4.58
2019-02-22T09:11:09.910Z,4.98
2019-02-22T09:12:19.903Z,5.38
2019-02-22T09:13:29.983Z,5.72
2019-02-22T09:14:50.456Z,6.16
2019-02-22T09:15:59.426Z,6.39
2019-02-22T09:17:09.155Z,6.5
2019-02-22T09:18:19.111Z,6.57
2019-02-22T09:19:29.077Z,6.68
2019-02-22T09:20:38.790Z,6.92
2019-02-22T09:21:48.771Z,6.68
2019-02-22T09:22:58.717Z,6.64
2019-02-22T09:24:08.757Z,6.77
2019-02-22T09:25:18.463Z,6.86
2019-02-22T09:26:28.464Z,6.96
2019-02-22T09:27:38.433Z,6.83
2019-02-22T09:28:48.133Z,6.93
2019-02-22T09:30:03.995Z,7.15
2019-02-22T09:31:13.780Z,6.97
2019-02-22T09:32:23.493Z,7.05
2019-02-22T09:33:33.195Z,7.21
2019-02-22T09:34:43.167Z,7.19
2019-02-22T09:35:53.671Z,7.48
2019-02-22T09:37:03.627Z,7.59
2019-02-22T09:38:13.347Z,7.72
2019-02-22T09:39:23.359Z,7.72
2019-02-22T09:40:33.368Z,7.74
2019-02-22T09:41:43.374Z,7.72
2019-02-22T09:42:53.362Z,7.81
2019-02-22T09:44:03.556Z,7.77
2019-02-22T09:45:28.207Z,7.99
2019-02-22T09:46:38.187Z,8.08
2019-02-22T09:47:48.092Z,8.16
2019-02-22T09:48:58.121Z,8.06
2019-02-22T09:50:08.143Z,8.17
2019-02-22T09:51:17.607Z,8.36
2019-02-22T09:52:27.584Z,8.31
2019-02-22T09:53:37.032Z,8.32
2019-02-22T09:54:47.028Z,8.16
2019-02-22T09:55:56.505Z,8.02
2019-02-22T09:57:06.891Z,7.84
2019-02-22T09:58:16.349Z,7.59
2019-02-22T09:59:26.067Z,7.67
2019-02-22T10:00:36.035Z,7.55
2019-02-22T10:01:45.780Z,7.58
2019-02-22T10:02:55.707Z,7.9
2019-02-22T10:04:05.434Z,7.91
2019-02-22T10:05:15.207Z,8.06
2019-02-22T10:06:25.172Z,7.88
2019-02-22T10:07:34.943Z,7.99
2019-02-22T10:08:44.972Z,8.21
2019-02-22T10:09:54.729Z,8.14
2019-02-22T10:11:04.700Z,8.32
2019-02-22T10:12:14.691Z,8.34
2019-02-22T10:13:24.458Z,8.53
2019-02-22T10:14:34.681Z,8.52
2019-02-22T10:15:44.390Z,8.52
2019-02-22T10:16:54.435Z,8.59
2019-02-22T10:18:04.406Z,8.72
2019-02-22T10:19:14.120Z,8.66
2019-02-22T10:20:23.840Z,8.77
2019-02-22T10:21:33.570Z,8.9
2019-02-22T10:22:43.515Z,8.84
2019-02-22T10:23:53.510Z,8.63
2019-02-22T10:25:03.474Z,8.63
2019-02-22T10:26:13.507Z,8.59
2019-02-22T10:27:23.469Z,8.64
2019-02-22T10:28:33.685Z,8.78
2019-02-22T10:29:43.455Z,8.78
2019-02-22T10:30:53.412Z,8.82
2019-02-22T10:32:03.238Z,8.81
2019-02-22T10:33:12.789Z,8.69
2019-02-22T10:34:22.748Z,8.71
2019-02-22T10:35:32.936Z,9.02
2019-02-22T10:36:50.284Z,9.16
2019-02-22T10:38:00.002Z,9.26
2019-02-22T10:39:11.032Z,9.26
2019-02-22T10:40:21.067Z,9.13
2019-02-22T10:41:30.795Z,9.27
2019-02-22T10:42:40.490Z,9.37
2019-02-22T10:43:50.220Z,9.47
2019-02-22T10:44:59.693Z,9.52
2019-02-22T10:46:09.202Z,9.84
2019-02-22T10:47:19.248Z,10
2019-02-22T10:48:28.756Z,10.28
2019-02-22T10:49:38.806Z,10.17
2019-02-22T10:50:48.844Z,10.27
2019-02-22T10:51:58.578Z,10.27
2019-02-22T10:53:08.301Z,10.33
2019-02-22T10:54:18.065Z,10.45
2019-02-22T10:55:28.026Z,10.58
2019-02-22T10:56:39.205Z,10.8
2019-02-22T10:57:49.789Z,10.71
2019-02-22T10:58:59.608Z,10.36
2019-02-22T11:00:09.377Z,10.41
2019-02-22T11:01:19.361Z,10.58
2019-02-22T11:02:31.208Z,10.62
2019-02-22T11:03:41.435Z,10.69
2019-02-22T11:04:51.129Z,10.72
2019-02-22T11:06:01.078Z,10.62
2019-02-22T11:07:10.781Z,10.79
2019-02-22T11:08:20.790Z,10.89
2019-02-22T11:09:30.513Z,10.42
2019-02-22T11:10:39.968Z,10.55
2019-02-22T11:11:49.910Z,10.51
2019-02-22T11:12:59.597Z,10.58
2019-02-22T11:14:09.298Z,10.67
2019-02-22T11:15:18.792Z,10.83
2019-02-22T11:16:28.516Z,10.86
2019-02-22T11:17:37.999Z,10.98
2019-02-22T11:18:47.706Z,10.8
2019-02-22T11:19:57.438Z,10.71
2019-02-22T11:21:07.465Z,10.98
2019-02-22T11:22:16.703Z,10.94
2019-02-22T11:23:26.713Z,10.83
2019-02-22T11:24:36.560Z,11.05
2019-02-22T11:25:46.555Z,11.33
2019-02-22T11:26:56.750Z,11.44
2019-02-22T11:28:06.712Z,11.19
2019-02-22T11:29:16.698Z,11.48
2019-02-22T11:30:26.904Z,11.65
2019-02-22T11:31:36.673Z,11.85
2019-02-22T11:32:46.432Z,11.95
2019-02-22T11:33:56.133Z,12.18
2019-02-22T11:35:05.860Z,12.02
2019-02-22T11:36:15.866Z,12.11
2019-02-22T11:37:25.585Z,11.89
2019-02-22T11:38:35.301Z,11.65
2019-02-22T11:39:44.762Z,11.65
2019-02-22T11:40:54.763Z,11.52
2019-02-22T11:42:03.973Z,11.34
2019-02-22T11:43:13.461Z,11.56
2019-02-22T11:44:23.422Z,11.67
2019-02-22T11:45:32.925Z,11.86
2019-02-22T11:46:42.974Z,12.03
2019-02-22T11:48:11.109Z,12.12
2019-02-22T11:49:21.079Z,12.07
2019-02-22T11:50:30.842Z,12.26
2019-02-22T11:51:40.816Z,11.99
2019-02-22T11:52:50.567Z,12.05
2019-02-22T11:54:00.542Z,11.86
2019-02-22T11:55:10.299Z,11.99
2019-02-22T11:56:20.018Z,11.96
2019-02-22T11:57:29.783Z,11.96
2019-02-22T11:58:39.774Z,12.12
2019-02-22T11:59:49.738Z,12.17
2019-02-22T12:00:59.716Z,12.26
2019-02-22T12:02:09.517Z,12.35
2019-02-22T12:03:29.474Z,12.48
2019-02-22T12:04:39.445Z,12.44
2019-02-22T12:05:49.142Z,12.5
2019-02-22T12:06:58.865Z,12.45
2019-02-22T12:08:08.583Z,12.47
2019-02-22T12:09:18.298Z,12.53
2019-02-22T12:10:28.265Z,12.48
2019-02-22T12:11:38.243Z,12.47
2019-02-22T12:12:48.590Z,12.69
2019-02-22T12:13:58.580Z,12.72
2019-02-22T12:15:08.579Z,12.91
2019-02-22T12:16:18.562Z,12.93
2019-02-22T12:17:28.566Z,12.48
2019-02-22T12:18:39.144Z,12.32
2019-02-22T12:19:48.862Z,12.08
2019-02-22T12:20:58.944Z,12.21
2019-02-22T12:22:08.920Z,12.62
2019-02-22T12:23:18.618Z,12.76
2019-02-22T12:24:28.612Z,12.95
2019-02-22T12:25:38.564Z,12.94
2019-02-22T12:26:49.890Z,12.87
2019-02-22T12:27:59.664Z,12.87
2019-02-22T12:29:09.375Z,12.75
2019-02-22T12:30:19.370Z,12.7
2019-02-22T12:31:31.036Z,12.68
2019-02-22T12:32:42.051Z,12.5
2019-02-22T12:33:52.420Z,12.48
2019-02-22T12:35:02.383Z,12.62
2019-02-22T12:36:14.456Z,12.65
2019-02-22T12:37:24.434Z,12.84
2019-02-22T12:38:34.159Z,13.02
2019-02-22T12:39:43.878Z,13.2
2019-02-22T12:40:53.853Z,13.33
2019-02-22T12:42:03.299Z,13.47
2019-02-22T12:43:13.299Z,13.64
2019-02-22T12:44:23.284Z,13.3
2019-02-22T12:45:33.265Z,13.12
2019-02-22T12:46:43.243Z,12.93
2019-02-22T12:47:53.243Z,12.94
2019-02-22T12:49:03.211Z,13.02
2019-02-22T12:50:13.177Z,12.81
2019-02-22T12:51:23.145Z,12.86
2019-02-22T12:52:32.848Z,13.12
2019-02-22T12:53:42.845Z,13.3
2019-02-22T12:54:52.556Z,13.5
2019-02-22T12:56:02.530Z,13.64
2019-02-22T12:57:12.002Z,13.6
2019-02-22T12:58:21.989Z,13.3
2019-02-22T12:59:32.002Z,13.33
2019-02-22T13:00:41.975Z,13.01
2019-02-22T13:01:51.954Z,13.23
2019-02-22T13:03:07.026Z,12.9
2019-02-22T13:04:17.019Z,12.83
2019-02-22T13:05:26.984Z,12.87
2019-02-22T13:06:36.933Z,12.83
2019-02-22T13:07:46.905Z,12.75
2019-02-22T13:08:57.750Z,12.68
2019-02-22T13:10:07.741Z,12.91
2019-02-22T13:11:17.727Z,13.05
2019-02-22T13:12:27.447Z,13.21
2019-02-22T13:13:37.407Z,13.28
2019-02-22T13:14:47.380Z,13.23
2019-02-22T13:15:57.339Z,13.37
2019-02-22T13:17:07.291Z,13.3
2019-02-22T13:18:17.267Z,13.31
2019-02-22T13:19:27.254Z,13.2
2019-02-22T13:20:37.222Z,13.3
2019-02-22T13:21:46.691Z,13.27
2019-02-22T13:22:56.689Z,13.11
2019-02-22T13:24:06.653Z,13.09
2019-02-22T13:25:16.493Z,13.21
2019-02-22T13:26:26.253Z,13.2
2019-02-22T13:27:35.499Z,13.01
2019-02-22T13:28:45.242Z,13.23
2019-02-22T13:29:55.289Z,13.36
2019-02-22T13:31:05.207Z,13.45
2019-02-22T13:32:15.167Z,13.31
2019-02-22T13:33:24.737Z,13.05
2019-02-22T13:34:34.519Z,13.16
2019-02-22T13:35:47.137Z,12.91
2019-02-22T13:36:57.149Z,12.87
2019-02-22T13:38:07.145Z,12.84
2019-02-22T13:39:17.174Z,12.84
2019-02-22T13:40:27.151Z,13.13
2019-02-22T13:41:37.127Z,13.13
2019-02-22T13:42:47.120Z,13.2
2019-02-22T13:43:56.850Z,13.13
2019-02-22T13:45:06.582Z,13.09
2019-02-22T13:46:16.573Z,13.26
2019-02-22T13:47:26.540Z,13.08
2019-02-22T13:48:36.515Z,13.05
2019-02-22T13:49:47.041Z,13.2
2019-02-22T13:50:56.991Z,13.11
2019-02-22T13:52:06.976Z,13.12
2019-02-22T13:53:16.993Z,13.16
2019-02-22T13:54:26.963Z,12.88
2019-02-22T13:55:36.945Z,13.05
2019-02-22T13:56:46.676Z,12.91
2019-02-22T13:57:56.162Z,12.91
2019-02-22T13:59:06.189Z,12.91
2019-02-22T14:00:15.923Z,12.78
2019-02-22T14:01:25.727Z,12.75
2019-02-22T14:02:35.505Z,12.93
2019-02-22T14:03:45.525Z,12.81
2019-02-22T14:04:55.266Z,12.63
2019-02-22T14:06:07.689Z,12.47
2019-02-22T14:07:17.669Z,12.62
2019-02-22T14:08:27.129Z,12.47
2019-02-22T14:09:36.844Z,12.72
2019-02-22T14:10:46.815Z,12.84
2019-02-22T14:11:56.538Z,12.78
2019-02-22T14:13:06.248Z,12.94
2019-02-22T14:14:15.967Z,12.84
2019-02-22T14:15:36.969Z,12.73
2019-02-22T14:16:47.333Z,12.88
2019-02-22T14:17:57.029Z,12.65
2019-02-22T14:19:06.981Z,12.3
2019-02-22T14:20:16.932Z,12.18
2019-02-22T14:21:26.943Z,11.96
2019-02-22T14:22:36.691Z,12.05
2019-02-22T14:23:46.679Z,11.96
2019-02-22T14:24:56.661Z,11.99
2019-02-22T14:26:06.629Z,12.11
2019-02-22T14:27:16.581Z,12
2019-02-22T14:28:26.547Z,12.03
2019-02-22T14:29:36.514Z,12.23
2019-02-22T14:30:46.483Z,12.4
2019-02-22T14:31:56.443Z,12.37
2019-02-22T14:33:06.163Z,12.37
2019-02-22T14:34:16.111Z,12.37
2019-02-22T14:35:26.080Z,12.29
2019-02-22T14:36:36.194Z,12.48
2019-02-22T14:37:46.286Z,12.4
2019-02-22T14:38:56.565Z,12.39
2019-02-22T14:40:08.677Z,12.53
2019-02-22T14:41:18.133Z,12.36
2019-02-22T14:42:28.078Z,12.1
2019-02-22T14:43:38.033Z,12.25
2019-02-22T14:44:47.992Z,12.03
2019-02-22T14:45:58.147Z,11.89
2019-02-22T14:47:07.891Z,11.63
2019-02-22T14:48:17.882Z,11.73
2019-02-22T14:49:27.845Z,11.7
2019-02-22T14:50:37.803Z,11.78
2019-02-22T14:51:47.513Z,12.02
2019-02-22T14:52:57.481Z,12.07
2019-02-22T14:54:07.451Z,12.21
2019-02-22T14:55:17.414Z,12.11
2019-02-22T14:56:27.367Z,11.83
2019-02-22T14:57:37.079Z,11.53
2019-02-22T14:58:48.557Z,11.35
2019-02-22T14:59:58.305Z,11.23
2019-02-22T15:01:08.260Z,11.44
2019-02-22T15:02:18.215Z,11.49
2019-02-22T15:03:27.958Z,11.44
2019-02-22T15:04:38.757Z,11.49
2019-02-22T15:05:48.483Z,11.45
2019-02-22T15:06:58.217Z,11.52
2019-02-22T15:08:08.407Z,11.49
2019-02-22T15:09:18.380Z,11.31
2019-02-22T15:10:28.099Z,11.4
2019-02-22T15:11:38.078Z,11.53
2019-02-22T15:12:48.043Z,11.16
2019-02-22T15:13:58.004Z,11.13
2019-02-22T15:15:07.987Z,10.84
2019-02-22T15:16:17.953Z,10.65
2019-02-22T15:17:29.907Z,10.61
2019-02-22T15:18:39.630Z,10.51
2019-02-22T15:19:49.357Z,10.45
2019-02-22T15:20:59.317Z,10.59
2019-02-22T15:22:09.287Z,10.64
2019-02-22T15:23:19.246Z,10.61
2019-02-22T15:24:28.562Z,10.58
2019-02-22T15:25:40.560Z,10.49